sensor_id;sensor_type;location;lat;lon;timestamp;P1;durP1;ratioP1;P2;durP2;ratioP2
25359;SDS011;13311;51.386;0.016;2024-03-07T00:00:31;27.00;;;15.88;;
25359;SDS011;13311;51.386;0.016;2024-03-07T00:05:32;26.88;;;18.17;;
25359;SDS011;13311;51.386;0.016;2024-03-07T00:10:32;30.23;;;20.40;;
25359;SDS011;13311;51.386;0.016;2024-03-07T00:15:36;47.13;;;24.55;;
25359;SDS011;13311;51.386;0.016;2024-03-07T00:20:36;94.72;;;29.35;;
25359;SDS011;13311;51.386;0.016;2024-03-07T00:25:37;87.28;;;30.13;;
25359;SDS011;13311;51.386;0.016;2024-03-07T00:30:38;72.43;;;29.25;;
25359;SDS011;13311;51.386;0.016;2024-03-07T00:35:39;147.60;;;35.90;;
25359;SDS011;13311;51.386;0.016;2024-03-07T00:40:40;158.77;;;35.63;;
25359;SDS011;13311;51.386;0.016;2024-03-07T00:45:41;184.88;;;38.50;;
25359;SDS011;13311;51.386;0.016;2024-03-07T00:50:41;214.40;;;41.95;;
25359;SDS011;13311;51.386;0.016;2024-03-07T00:55:42;208.98;;;44.78;;
25359;SDS011;13311;51.386;0.016;2024-03-07T01:00:44;205.70;;;47.43;;
25359;SDS011;13311;51.386;0.016;2024-03-07T01:05:45;131.93;;;42.42;;
25359;SDS011;13311;51.386;0.016;2024-03-07T01:10:46;154.82;;;45.55;;
25359;SDS011;13311;51.386;0.016;2024-03-07T01:15:48;181.35;;;46.70;;
25359;SDS011;13311;51.386;0.016;2024-03-07T01:20:48;171.18;;;47.92;;
25359;SDS011;13311;51.386;0.016;2024-03-07T01:25:49;117.22;;;45.95;;
25359;SDS011;13311;51.386;0.016;2024-03-07T01:30:50;119.72;;;46.13;;
25359;SDS011;13311;51.386;0.016;2024-03-07T01:35:52;110.32;;;46.47;;
25359;SDS011;13311;51.386;0.016;2024-03-07T01:40:53;133.90;;;46.65;;
25359;SDS011;13311;51.386;0.016;2024-03-07T01:45:55;141.65;;;49.30;;
25359;SDS011;13311;51.386;0.016;2024-03-07T01:50:59;134.80;;;49.25;;
25359;SDS011;13311;51.386;0.016;2024-03-07T01:56:03;125.78;;;48.40;;
25359;SDS011;13311;51.386;0.016;2024-03-07T02:01:05;126.05;;;48.15;;
25359;SDS011;13311;51.386;0.016;2024-03-07T02:06:06;106.80;;;48.33;;
25359;SDS011;13311;51.386;0.016;2024-03-07T02:11:07;134.02;;;50.22;;
25359;SDS011;13311;51.386;0.016;2024-03-07T02:16:09;108.43;;;48.35;;
25359;SDS011;13311;51.386;0.016;2024-03-07T02:21:10;113.13;;;48.72;;
25359;SDS011;13311;51.386;0.016;2024-03-07T02:26:11;106.18;;;48.83;;
25359;SDS011;13311;51.386;0.016;2024-03-07T02:31:12;115.95;;;48.88;;
25359;SDS011;13311;51.386;0.016;2024-03-07T02:36:13;115.75;;;49.92;;
25359;SDS011;13311;51.386;0.016;2024-03-07T02:41:13;119.68;;;50.90;;
25359;SDS011;13311;51.386;0.016;2024-03-07T02:46:14;111.13;;;48.10;;
25359;SDS011;13311;51.386;0.016;2024-03-07T02:51:16;107.18;;;48.25;;
25359;SDS011;13311;51.386;0.016;2024-03-07T02:56:17;110.97;;;51.47;;
25359;SDS011;13311;51.386;0.016;2024-03-07T03:01:18;107.80;;;51.03;;
25359;SDS011;13311;51.386;0.016;2024-03-07T03:06:18;114.55;;;51.60;;
25359;SDS011;13311;51.386;0.016;2024-03-07T03:11:21;105.93;;;49.15;;
25359;SDS011;13311;51.386;0.016;2024-03-07T03:16:22;108.07;;;50.75;;
25359;SDS011;13311;51.386;0.016;2024-03-07T03:21:23;97.57;;;48.92;;
25359;SDS011;13311;51.386;0.016;2024-03-07T03:26:24;91.35;;;47.70;;
25359;SDS011;13311;51.386;0.016;2024-03-07T03:31:25;107.10;;;52.28;;
25359;SDS011;13311;51.386;0.016;2024-03-07T03:36:25;95.95;;;47.72;;
25359;SDS011;13311;51.386;0.016;2024-03-07T03:41:26;74.43;;;42.67;;
25359;SDS011;13311;51.386;0.016;2024-03-07T03:46:27;76.15;;;43.90;;
25359;SDS011;13311;51.386;0.016;2024-03-07T03:51:28;84.22;;;43.50;;
25359;SDS011;13311;51.386;0.016;2024-03-07T03:56:29;77.85;;;42.35;;
25359;SDS011;13311;51.386;0.016;2024-03-07T04:01:32;80.75;;;45.10;;
25359;SDS011;13311;51.386;0.016;2024-03-07T04:06:32;76.97;;;42.75;;
25359;SDS011;13311;51.386;0.016;2024-03-07T04:11:33;78.40;;;42.88;;
25359;SDS011;13311;51.386;0.016;2024-03-07T04:16:34;80.40;;;42.72;;
25359;SDS011;13311;51.386;0.016;2024-03-07T04:21:34;72.28;;;39.63;;
25359;SDS011;13311;51.386;0.016;2024-03-07T04:26:35;78.57;;;39.80;;
25359;SDS011;13311;51.386;0.016;2024-03-07T04:31:36;70.72;;;38.67;;
25359;SDS011;13311;51.386;0.016;2024-03-07T04:36:37;81.07;;;40.67;;
25359;SDS011;13311;51.386;0.016;2024-03-07T04:41:38;83.25;;;40.60;;
25359;SDS011;13311;51.386;0.016;2024-03-07T04:46:38;76.90;;;40.03;;
25359;SDS011;13311;51.386;0.016;2024-03-07T04:51:42;85.55;;;42.22;;
25359;SDS011;13311;51.386;0.016;2024-03-07T04:56:44;80.10;;;40.13;;
25359;SDS011;13311;51.386;0.016;2024-03-07T05:01:46;79.70;;;41.47;;
25359;SDS011;13311;51.386;0.016;2024-03-07T05:06:48;81.05;;;42.17;;
25359;SDS011;13311;51.386;0.016;2024-03-07T05:11:49;78.82;;;42.88;;
25359;SDS011;13311;51.386;0.016;2024-03-07T05:16:53;84.95;;;43.63;;
25359;SDS011;13311;51.386;0.016;2024-03-07T05:22:05;89.35;;;44.17;;
25359;SDS011;13311;51.386;0.016;2024-03-07T05:27:06;85.97;;;43.92;;
25359;SDS011;13311;51.386;0.016;2024-03-07T05:32:23;86.70;;;44.53;;
25359;SDS011;13311;51.386;0.016;2024-03-07T05:37:28;91.18;;;47.05;;
25359;SDS011;13311;51.386;0.016;2024-03-07T05:42:28;93.05;;;49.33;;
25359;SDS011;13311;51.386;0.016;2024-03-07T05:47:29;90.55;;;47.00;;
25359;SDS011;13311;51.386;0.016;2024-03-07T05:52:31;101.80;;;51.33;;
25359;SDS011;13311;51.386;0.016;2024-03-07T05:57:32;95.00;;;47.92;;
25359;SDS011;13311;51.386;0.016;2024-03-07T06:02:33;91.75;;;46.85;;
25359;SDS011;13311;51.386;0.016;2024-03-07T06:07:33;86.72;;;45.50;;
25359;SDS011;13311;51.386;0.016;2024-03-07T06:12:34;82.35;;;44.90;;
25359;SDS011;13311;51.386;0.016;2024-03-07T06:17:35;81.68;;;43.33;;
25359;SDS011;13311;51.386;0.016;2024-03-07T06:22:35;77.43;;;45.03;;
25359;SDS011;13311;51.386;0.016;2024-03-07T06:27:36;77.45;;;44.63;;
25359;SDS011;13311;51.386;0.016;2024-03-07T06:32:47;80.75;;;46.00;;
25359;SDS011;13311;51.386;0.016;2024-03-07T06:37:48;82.78;;;45.70;;
25359;SDS011;13311;51.386;0.016;2024-03-07T06:42:48;79.40;;;46.92;;
25359;SDS011;13311;51.386;0.016;2024-03-07T06:47:49;79.53;;;47.30;;
25359;SDS011;13311;51.386;0.016;2024-03-07T06:52:52;88.68;;;50.25;;
25359;SDS011;13311;51.386;0.016;2024-03-07T06:57:53;90.57;;;52.78;;
25359;SDS011;13311;51.386;0.016;2024-03-07T07:02:54;81.38;;;47.50;;
25359;SDS011;13311;51.386;0.016;2024-03-07T07:07:55;83.93;;;49.38;;
25359;SDS011;13311;51.386;0.016;2024-03-07T07:12:56;87.10;;;50.53;;
25359;SDS011;13311;51.386;0.016;2024-03-07T07:17:56;99.40;;;56.22;;
25359;SDS011;13311;51.386;0.016;2024-03-07T07:22:57;101.32;;;54.40;;
25359;SDS011;13311;51.386;0.016;2024-03-07T07:28:00;101.38;;;55.40;;
25359;SDS011;13311;51.386;0.016;2024-03-07T07:33:04;100.32;;;56.05;;
25359;SDS011;13311;51.386;0.016;2024-03-07T07:38:05;106.88;;;59.55;;
25359;SDS011;13311;51.386;0.016;2024-03-07T07:43:07;110.53;;;59.55;;
25359;SDS011;13311;51.386;0.016;2024-03-07T07:48:07;102.43;;;57.85;;
25359;SDS011;13311;51.386;0.016;2024-03-07T07:53:08;107.63;;;59.58;;
25359;SDS011;13311;51.386;0.016;2024-03-07T07:58:10;97.57;;;54.30;;
25359;SDS011;13311;51.386;0.016;2024-03-07T08:03:12;100.03;;;57.55;;
25359;SDS011;13311;51.386;0.016;2024-03-07T08:08:15;101.93;;;57.50;;
25359;SDS011;13311;51.386;0.016;2024-03-07T08:13:18;101.25;;;56.95;;
25359;SDS011;13311;51.386;0.016;2024-03-07T08:18:19;101.97;;;58.17;;
25359;SDS011;13311;51.386;0.016;2024-03-07T08:23:20;105.10;;;58.13;;
25359;SDS011;13311;51.386;0.016;2024-03-07T08:28:23;102.82;;;58.35;;
25359;SDS011;13311;51.386;0.016;2024-03-07T08:33:24;90.07;;;53.83;;
25359;SDS011;13311;51.386;0.016;2024-03-07T08:38:25;88.85;;;53.78;;
25359;SDS011;13311;51.386;0.016;2024-03-07T08:43:26;96.00;;;54.42;;
25359;SDS011;13311;51.386;0.016;2024-03-07T08:48:27;84.90;;;49.95;;
25359;SDS011;13311;51.386;0.016;2024-03-07T08:53:28;86.03;;;54.47;;
25359;SDS011;13311;51.386;0.016;2024-03-07T08:58:29;90.65;;;51.38;;
25359;SDS011;13311;51.386;0.016;2024-03-07T09:03:29;84.65;;;51.80;;
25359;SDS011;13311;51.386;0.016;2024-03-07T09:08:30;83.93;;;49.83;;
25359;SDS011;13311;51.386;0.016;2024-03-07T09:13:31;86.30;;;51.30;;
25359;SDS011;13311;51.386;0.016;2024-03-07T09:18:32;79.60;;;48.75;;
25359;SDS011;13311;51.386;0.016;2024-03-07T09:23:32;85.53;;;49.85;;
25359;SDS011;13311;51.386;0.016;2024-03-07T09:28:33;86.15;;;51.55;;
25359;SDS011;13311;51.386;0.016;2024-03-07T09:33:34;92.88;;;53.75;;
25359;SDS011;13311;51.386;0.016;2024-03-07T09:38:34;86.63;;;53.25;;
25359;SDS011;13311;51.386;0.016;2024-03-07T09:43:35;92.68;;;55.75;;
25359;SDS011;13311;51.386;0.016;2024-03-07T09:48:38;95.78;;;57.13;;
25359;SDS011;13311;51.386;0.016;2024-03-07T09:53:39;94.22;;;55.80;;
25359;SDS011;13311;51.386;0.016;2024-03-07T09:58:42;102.90;;;61.60;;
25359;SDS011;13311;51.386;0.016;2024-03-07T10:03:58;106.78;;;61.85;;
25359;SDS011;13311;51.386;0.016;2024-03-07T10:09:10;101.93;;;60.78;;
25359;SDS011;13311;51.386;0.016;2024-03-07T10:14:13;103.70;;;59.13;;
25359;SDS011;13311;51.386;0.016;2024-03-07T10:19:14;102.88;;;60.25;;
25359;SDS011;13311;51.386;0.016;2024-03-07T10:24:15;102.70;;;61.13;;
25359;SDS011;13311;51.386;0.016;2024-03-07T10:29:16;106.88;;;66.45;;
25359;SDS011;13311;51.386;0.016;2024-03-07T10:34:18;125.80;;;71.43;;
25359;SDS011;13311;51.386;0.016;2024-03-07T10:39:20;121.03;;;68.00;;
25359;SDS011;13311;51.386;0.016;2024-03-07T10:44:25;117.85;;;68.97;;
25359;SDS011;13311;51.386;0.016;2024-03-07T10:49:29;114.35;;;67.38;;
25359;SDS011;13311;51.386;0.016;2024-03-07T11:00:09;105.88;;;66.38;;
25359;SDS011;13311;51.386;0.016;2024-03-07T11:05:30;108.70;;;65.55;;
25359;SDS011;13311;51.386;0.016;2024-03-07T11:10:31;107.43;;;63.17;;
25359;SDS011;13311;51.386;0.016;2024-03-07T11:15:34;102.72;;;62.03;;
25359;SDS011;13311;51.386;0.016;2024-03-07T11:20:36;96.90;;;60.42;;
25359;SDS011;13311;51.386;0.016;2024-03-07T11:25:38;86.95;;;55.33;;
25359;SDS011;13311;51.386;0.016;2024-03-07T11:30:39;83.32;;;54.00;;
25359;SDS011;13311;51.386;0.016;2024-03-07T11:35:42;76.28;;;49.10;;
25359;SDS011;13311;51.386;0.016;2024-03-07T11:40:50;76.20;;;47.57;;
25359;SDS011;13311;51.386;0.016;2024-03-07T11:45:51;75.60;;;46.35;;
25359;SDS011;13311;51.386;0.016;2024-03-07T11:50:52;77.07;;;47.03;;
25359;SDS011;13311;51.386;0.016;2024-03-07T11:55:55;81.10;;;45.95;;
25359;SDS011;13311;51.386;0.016;2024-03-07T12:00:55;67.60;;;45.03;;
25359;SDS011;13311;51.386;0.016;2024-03-07T12:05:58;69.38;;;43.22;;
25359;SDS011;13311;51.386;0.016;2024-03-07T12:11:00;67.95;;;42.45;;
25359;SDS011;13311;51.386;0.016;2024-03-07T12:16:03;66.90;;;40.35;;
25359;SDS011;13311;51.386;0.016;2024-03-07T12:21:07;61.78;;;37.58;;
25359;SDS011;13311;51.386;0.016;2024-03-07T12:26:09;59.15;;;34.33;;
25359;SDS011;13311;51.386;0.016;2024-03-07T12:31:15;54.85;;;32.25;;
25359;SDS011;13311;51.386;0.016;2024-03-07T12:36:16;48.45;;;29.48;;
25359;SDS011;13311;51.386;0.016;2024-03-07T12:41:17;46.50;;;29.92;;
25359;SDS011;13311;51.386;0.016;2024-03-07T12:46:18;49.97;;;27.40;;
25359;SDS011;13311;51.386;0.016;2024-03-07T12:51:19;46.28;;;27.83;;
25359;SDS011;13311;51.386;0.016;2024-03-07T12:56:20;46.17;;;28.05;;
25359;SDS011;13311;51.386;0.016;2024-03-07T13:01:20;48.58;;;27.35;;
25359;SDS011;13311;51.386;0.016;2024-03-07T13:06:21;49.80;;;28.42;;
25359;SDS011;13311;51.386;0.016;2024-03-07T13:11:25;39.88;;;25.33;;
25359;SDS011;13311;51.386;0.016;2024-03-07T13:16:31;43.80;;;25.60;;
25359;SDS011;13311;51.386;0.016;2024-03-07T13:21:33;42.80;;;26.15;;
25359;SDS011;13311;51.386;0.016;2024-03-07T13:26:35;44.53;;;26.55;;
25359;SDS011;13311;51.386;0.016;2024-03-07T13:31:36;45.17;;;26.23;;
25359;SDS011;13311;51.386;0.016;2024-03-07T13:36:37;40.97;;;26.17;;
25359;SDS011;13311;51.386;0.016;2024-03-07T13:41:38;51.42;;;27.27;;
25359;SDS011;13311;51.386;0.016;2024-03-07T13:46:38;48.42;;;27.65;;
25359;SDS011;13311;51.386;0.016;2024-03-07T13:51:40;48.63;;;28.73;;
25359;SDS011;13311;51.386;0.016;2024-03-07T14:02:52;54.15;;;33.50;;
25359;SDS011;13311;51.386;0.016;2024-03-07T14:25:56;65.35;;;38.30;;
25359;SDS011;13311;51.386;0.016;2024-03-07T14:31:20;75.50;;;40.55;;
25359;SDS011;13311;51.386;0.016;2024-03-07T14:36:36;74.00;;;44.75;;
25359;SDS011;13311;51.386;0.016;2024-03-07T14:46:53;73.88;;;43.28;;
25359;SDS011;13311;51.386;0.016;2024-03-07T14:52:07;71.88;;;43.60;;
25359;SDS011;13311;51.386;0.016;2024-03-07T14:57:11;74.40;;;44.92;;
25359;SDS011;13311;51.386;0.016;2024-03-07T15:02:13;78.82;;;44.40;;
25359;SDS011;13311;51.386;0.016;2024-03-07T15:07:14;62.40;;;40.08;;
25359;SDS011;13311;51.386;0.016;2024-03-07T15:12:15;64.85;;;38.60;;
25359;SDS011;13311;51.386;0.016;2024-03-07T15:17:16;66.88;;;38.95;;
25359;SDS011;13311;51.386;0.016;2024-03-07T15:22:17;61.17;;;36.03;;
25359;SDS011;13311;51.386;0.016;2024-03-07T15:27:20;61.15;;;35.97;;
25359;SDS011;13311;51.386;0.016;2024-03-07T15:32:21;50.65;;;32.40;;
25359;SDS011;13311;51.386;0.016;2024-03-07T15:37:22;51.17;;;32.35;;
25359;SDS011;13311;51.386;0.016;2024-03-07T15:42:23;53.95;;;31.95;;
25359;SDS011;13311;51.386;0.016;2024-03-07T15:47:24;50.72;;;31.85;;
25359;SDS011;13311;51.386;0.016;2024-03-07T15:52:25;56.25;;;31.42;;
25359;SDS011;13311;51.386;0.016;2024-03-07T15:57:26;50.58;;;29.90;;
25359;SDS011;13311;51.386;0.016;2024-03-07T16:02:27;48.50;;;29.85;;
25359;SDS011;13311;51.386;0.016;2024-03-07T16:07:28;50.30;;;29.88;;
25359;SDS011;13311;51.386;0.016;2024-03-07T16:12:28;48.20;;;29.42;;
25359;SDS011;13311;51.386;0.016;2024-03-07T16:17:30;48.50;;;29.63;;
25359;SDS011;13311;51.386;0.016;2024-03-07T16:22:31;45.58;;;29.48;;
25359;SDS011;13311;51.386;0.016;2024-03-07T16:27:32;45.72;;;26.50;;
25359;SDS011;13311;51.386;0.016;2024-03-07T16:32:33;45.92;;;26.30;;
25359;SDS011;13311;51.386;0.016;2024-03-07T16:37:38;39.65;;;27.60;;
25359;SDS011;13311;51.386;0.016;2024-03-07T16:42:47;41.30;;;27.60;;
25359;SDS011;13311;51.386;0.016;2024-03-07T16:47:53;50.78;;;29.17;;
25359;SDS011;13311;51.386;0.016;2024-03-07T16:52:57;50.58;;;30.35;;
25359;SDS011;13311;51.386;0.016;2024-03-07T16:58:05;49.13;;;30.33;;
25359;SDS011;13311;51.386;0.016;2024-03-07T17:03:11;53.65;;;30.90;;
25359;SDS011;13311;51.386;0.016;2024-03-07T17:08:12;49.22;;;29.75;;
25359;SDS011;13311;51.386;0.016;2024-03-07T17:13:16;54.55;;;30.85;;
25359;SDS011;13311;51.386;0.016;2024-03-07T17:18:16;51.75;;;32.22;;
25359;SDS011;13311;51.386;0.016;2024-03-07T17:23:17;46.75;;;30.15;;
25359;SDS011;13311;51.386;0.016;2024-03-07T17:28:18;47.97;;;29.70;;
25359;SDS011;13311;51.386;0.016;2024-03-07T17:33:20;45.58;;;27.08;;
25359;SDS011;13311;51.386;0.016;2024-03-07T17:38:25;50.92;;;30.83;;
25359;SDS011;13311;51.386;0.016;2024-03-07T17:43:27;55.60;;;32.80;;
25359;SDS011;13311;51.386;0.016;2024-03-07T17:48:28;58.08;;;36.05;;
25359;SDS011;13311;51.386;0.016;2024-03-07T17:53:28;59.63;;;38.40;;
25359;SDS011;13311;51.386;0.016;2024-03-07T17:58:29;59.08;;;35.30;;
25359;SDS011;13311;51.386;0.016;2024-03-07T18:03:32;62.03;;;39.47;;
25359;SDS011;13311;51.386;0.016;2024-03-07T18:08:33;59.33;;;37.05;;
25359;SDS011;13311;51.386;0.016;2024-03-07T18:13:34;50.13;;;33.63;;
25359;SDS011;13311;51.386;0.016;2024-03-07T18:18:36;51.88;;;32.50;;
25359;SDS011;13311;51.386;0.016;2024-03-07T18:23:38;57.80;;;32.70;;
25359;SDS011;13311;51.386;0.016;2024-03-07T18:28:39;50.53;;;30.88;;
25359;SDS011;13311;51.386;0.016;2024-03-07T18:33:43;48.38;;;30.67;;
25359;SDS011;13311;51.386;0.016;2024-03-07T18:38:44;45.25;;;28.40;;
25359;SDS011;13311;51.386;0.016;2024-03-07T18:43:46;47.72;;;28.95;;
25359;SDS011;13311;51.386;0.016;2024-03-07T18:48:47;47.17;;;27.80;;
25359;SDS011;13311;51.386;0.016;2024-03-07T18:53:48;41.92;;;28.98;;
25359;SDS011;13311;51.386;0.016;2024-03-07T18:58:49;44.75;;;28.55;;
25359;SDS011;13311;51.386;0.016;2024-03-07T19:03:50;44.55;;;29.50;;
25359;SDS011;13311;51.386;0.016;2024-03-07T19:08:50;44.53;;;28.77;;
25359;SDS011;13311;51.386;0.016;2024-03-07T19:13:51;46.85;;;28.08;;
25359;SDS011;13311;51.386;0.016;2024-03-07T19:18:53;41.42;;;27.75;;
25359;SDS011;13311;51.386;0.016;2024-03-07T19:23:53;39.05;;;27.27;;
25359;SDS011;13311;51.386;0.016;2024-03-07T19:28:54;50.73;;;26.90;;
25359;SDS011;13311;51.386;0.016;2024-03-07T19:33:55;43.53;;;28.67;;
25359;SDS011;13311;51.386;0.016;2024-03-07T19:38:56;39.08;;;25.75;;
25359;SDS011;13311;51.386;0.016;2024-03-07T19:43:57;42.85;;;29.52;;
25359;SDS011;13311;51.386;0.016;2024-03-07T19:48:57;44.15;;;29.27;;
25359;SDS011;13311;51.386;0.016;2024-03-07T19:53:58;51.35;;;28.63;;
25359;SDS011;13311;51.386;0.016;2024-03-07T19:58:59;42.20;;;28.85;;
25359;SDS011;13311;51.386;0.016;2024-03-07T20:03:59;42.58;;;29.08;;
25359;SDS011;13311;51.386;0.016;2024-03-07T20:09:00;47.55;;;29.67;;
25359;SDS011;13311;51.386;0.016;2024-03-07T20:14:03;50.03;;;31.30;;
25359;SDS011;13311;51.386;0.016;2024-03-07T20:19:04;51.30;;;29.15;;
25359;SDS011;13311;51.386;0.016;2024-03-07T20:24:05;45.95;;;30.60;;
25359;SDS011;13311;51.386;0.016;2024-03-07T20:29:08;43.63;;;29.85;;
25359;SDS011;13311;51.386;0.016;2024-03-07T20:34:09;44.13;;;30.05;;
25359;SDS011;13311;51.386;0.016;2024-03-07T20:39:10;45.90;;;30.70;;
25359;SDS011;13311;51.386;0.016;2024-03-07T20:44:11;47.20;;;29.85;;
25359;SDS011;13311;51.386;0.016;2024-03-07T20:49:12;44.75;;;29.15;;
25359;SDS011;13311;51.386;0.016;2024-03-07T20:54:16;49.97;;;29.60;;
25359;SDS011;13311;51.386;0.016;2024-03-07T20:59:20;44.22;;;29.73;;
25359;SDS011;13311;51.386;0.016;2024-03-07T21:04:21;48.58;;;29.65;;
25359;SDS011;13311;51.386;0.016;2024-03-07T21:09:23;52.08;;;31.50;;
25359;SDS011;13311;51.386;0.016;2024-03-07T21:14:24;61.35;;;41.25;;
25359;SDS011;13311;51.386;0.016;2024-03-07T21:19:25;61.15;;;38.03;;
25359;SDS011;13311;51.386;0.016;2024-03-07T21:24:26;59.65;;;37.67;;
25359;SDS011;13311;51.386;0.016;2024-03-07T21:29:27;48.13;;;30.80;;
25359;SDS011;13311;51.386;0.016;2024-03-07T21:34:29;51.28;;;30.95;;
25359;SDS011;13311;51.386;0.016;2024-03-07T21:39:30;50.33;;;31.75;;
25359;SDS011;13311;51.386;0.016;2024-03-07T21:44:32;53.95;;;31.73;;
25359;SDS011;13311;51.386;0.016;2024-03-07T21:49:32;45.30;;;30.63;;
25359;SDS011;13311;51.386;0.016;2024-03-07T21:54:37;63.83;;;32.85;;
25359;SDS011;13311;51.386;0.016;2024-03-07T21:59:38;52.95;;;32.33;;
25359;SDS011;13311;51.386;0.016;2024-03-07T22:04:45;51.00;;;32.00;;
25359;SDS011;13311;51.386;0.016;2024-03-07T22:09:46;61.50;;;33.53;;
25359;SDS011;13311;51.386;0.016;2024-03-07T22:14:46;54.58;;;32.83;;
25359;SDS011;13311;51.386;0.016;2024-03-07T22:19:47;57.47;;;34.20;;
25359;SDS011;13311;51.386;0.016;2024-03-07T22:24:48;63.42;;;33.97;;
25359;SDS011;13311;51.386;0.016;2024-03-07T22:29:49;57.50;;;34.53;;
25359;SDS011;13311;51.386;0.016;2024-03-07T22:34:49;62.25;;;35.20;;
25359;SDS011;13311;51.386;0.016;2024-03-07T22:39:52;59.42;;;34.55;;
25359;SDS011;13311;51.386;0.016;2024-03-07T22:44:53;68.45;;;36.03;;
25359;SDS011;13311;51.386;0.016;2024-03-07T22:49:53;66.05;;;37.97;;
25359;SDS011;13311;51.386;0.016;2024-03-07T22:54:54;60.25;;;36.85;;
25359;SDS011;13311;51.386;0.016;2024-03-07T22:59:55;74.15;;;40.42;;
25359;SDS011;13311;51.386;0.016;2024-03-07T23:04:55;67.53;;;39.75;;
25359;SDS011;13311;51.386;0.016;2024-03-07T23:09:56;69.57;;;40.03;;
25359;SDS011;13311;51.386;0.016;2024-03-07T23:14:57;71.07;;;42.22;;
25359;SDS011;13311;51.386;0.016;2024-03-07T23:19:58;69.47;;;40.78;;
25359;SDS011;13311;51.386;0.016;2024-03-07T23:24:58;71.13;;;40.50;;
25359;SDS011;13311;51.386;0.016;2024-03-07T23:29:59;65.40;;;40.03;;
25359;SDS011;13311;51.386;0.016;2024-03-07T23:35:01;73.32;;;42.33;;
25359;SDS011;13311;51.386;0.016;2024-03-07T23:40:02;70.78;;;41.95;;
25359;SDS011;13311;51.386;0.016;2024-03-07T23:45:05;67.68;;;41.75;;
25359;SDS011;13311;51.386;0.016;2024-03-07T23:50:09;74.50;;;42.35;;
25359;SDS011;13311;51.386;0.016;2024-03-07T23:55:11;76.90;;;43.60;;
